Time;durP1;ratioP1;P1;durP2;ratioP2;P2;SDS_P1;SDS_P2;PMS_P1;PMS_P2;Temp;Humidity;BMP_temperature;BMP_pressure;BME280_temperature;BME280_humidity;BME280_pressure;Samples;Min_cycle;Max_cycle;Signal;HPM_P1;HPM_P2
2022/10/09 00:01:20;;;;;;;11.67;4.27;;;;;8.10;94803.00;;;;7394838;19;20471;-77
2022/10/09 00:03:55;;;;;;;13.50;4.77;;;;;7.80;94797.00;;;;7397070;19;20557;-78
2022/10/09 00:06:28;;;;;;;9.93;4.63;;;;;7.60;94793.00;;;;7396556;19;20153;-77
2022/10/09 00:09:03;;;;;;;11.03;5.10;;;;;7.50;94790.00;;;;7392167;19;20129;-76
2022/10/09 00:11:32;;;;;;;14.63;5.03;;;;;7.40;94800.00;;;;7395509;19;20497;-80
2022/10/09 00:14:01;;;;;;;7.37;4.23;;;;;7.40;94801.00;;;;7397045;19;20608;-77
2022/10/09 00:16:35;;;;;;;10.20;5.07;;;;;7.30;94801.00;;;;7395791;19;20136;-77
2022/10/09 00:19:03;;;;;;;9.43;4.57;;;;;7.30;94787.00;;;;7394588;19;20133;-77
2022/10/09 00:21:39;;;;;;;16.40;4.80;;;;;7.40;94789.00;;;;7394808;19;20160;-78
2022/10/09 00:24:13;;;;;;;18.57;5.17;;;;;7.40;94788.00;;;;7397359;19;20815;-78
2022/10/09 00:26:41;;;;;;;11.63;5.73;;;;;7.50;94783.00;;;;7396612;19;20650;-79
2022/10/09 00:29:08;;;;;;;10.57;5.23;;;;;7.50;94789.00;;;;7396672;19;20193;-77
2022/10/09 00:31:42;;;;;;;10.97;5.97;;;;;7.60;94784.00;;;;7395210;19;20169;-78
2022/10/09 00:34:10;;;;;;;13.30;5.60;;;;;7.60;94780.00;;;;7394644;19;20666;-78
2022/10/09 00:36:37;;;;;;;18.63;6.07;;;;;7.60;94780.00;;;;7398074;19;20129;-78
2022/10/09 00:39:14;;;;;;;15.63;6.43;;;;;7.50;94790.00;;;;7393724;19;20146;-78
2022/10/09 00:41:42;;;;;;;12.47;6.73;;;;;7.50;94782.00;;;;7395929;19;20129;-78
2022/10/09 00:44:47;;;;;;;16.43;6.47;;;;;7.50;94783.00;;;;7396252;19;20148;-78
2022/10/09 00:47:40;;;;;;;19.57;6.20;;;;;7.60;94778.00;;;;7394334;19;20653;-79
2022/10/09 00:50:25;;;;;;;11.87;6.43;;;;;7.70;94776.00;;;;7395903;19;20160;-78
2022/10/09 00:53:02;;;;;;;10.67;6.30;;;;;7.70;94775.00;;;;7394191;19;20484;-78
2022/10/09 00:55:30;;;;;;;12.80;6.30;;;;;7.70;94773.00;;;;7394048;19;20677;-78
2022/10/09 00:58:04;;;;;;;15.43;6.20;;;;;7.70;94767.00;;;;7394289;19;20152;-78
2022/10/09 01:00:39;;;;;;;12.30;6.87;;;;;7.60;94771.00;;;;7396087;19;20159;-77
2022/10/09 01:03:06;;;;;;;14.17;6.80;;;;;7.60;94771.00;;;;7391683;19;20145;-78
2022/10/09 01:06:11;;;;;;;14.23;6.40;;;;;7.70;94769.00;;;;7395091;19;20253;-77
2022/10/09 01:09:11;;;;;;;18.90;6.87;;;;;7.70;94762.00;;;;7391803;19;20744;-79
2022/10/09 01:11:44;;;;;;;16.33;6.60;;;;;7.70;94772.00;;;;7393040;19;20160;-80
2022/10/09 01:14:29;;;;;;;11.13;5.20;;;;;7.70;94758.00;;;;7394013;19;20208;-77
2022/10/09 01:17:24;;;;;;;11.67;5.20;;;;;7.60;94765.00;;;;7394036;19;20145;-79
2022/10/09 01:20:55;;;;;;;13.47;4.93;;;;;7.50;94754.00;;;;7395197;19;20182;-80
2022/10/09 01:23:55;;;;;;;13.17;5.33;;;;;7.50;94744.00;;;;7391394;19;20143;-80
2022/10/09 01:26:56;;;;;;;8.67;4.57;;;;;7.40;94750.00;;;;7395141;19;20564;-78
2022/10/09 01:29:30;;;;;;;16.23;5.17;;;;;7.50;94753.00;;;;7391729;19;20133;-80
2022/10/09 01:32:06;;;;;;;10.87;4.90;;;;;7.70;94748.00;;;;7394715;19;20132;-80
2022/10/09 01:34:34;;;;;;;11.77;4.50;;;;;7.60;94748.00;;;;7393973;19;20132;-80
2022/10/09 01:37:03;;;;;;;13.63;4.60;;;;;7.50;94741.00;;;;7391104;19;20156;-80
2022/10/09 01:39:38;;;;;;;11.83;4.70;;;;;7.50;94749.00;;;;7391660;19;20143;-79
2022/10/09 01:42:06;;;;;;;8.90;4.30;;;;;7.40;94746.00;;;;7394882;19;20607;-80
2022/10/09 01:44:34;;;;;;;13.57;4.27;;;;;7.30;94746.00;;;;7392828;19;20160;-79
2022/10/09 01:47:15;;;;;;;7.97;4.43;;;;;7.30;94729.00;;;;7391122;19;20148;-79
2022/10/09 01:50:07;;;;;;;7.20;4.53;;;;;7.30;94730.00;;;;7393506;19;20151;-79
2022/10/09 01:52:53;;;;;;;13.10;4.77;;;;;7.30;94727.00;;;;7392807;19;20648;-83
2022/10/09 01:55:39;;;;;;;15.60;4.90;;;;;7.40;94719.00;;;;7391613;19;20595;-80
2022/10/09 01:58:22;;;;;;;12.77;4.80;;;;;7.30;94719.00;;;;7394990;19;20196;-80
2022/10/09 02:01:20;;;;;;;8.80;4.40;;;;;7.30;94713.00;;;;7389067;19;20194;-79
2022/10/09 02:03:57;;;;;;;9.63;5.27;;;;;7.40;94705.00;;;;7392227;19;20595;-82
2022/10/09 02:06:27;;;;;;;14.33;5.57;;;;;7.50;94714.00;;;;7389772;19;20137;-82
2022/10/09 02:09:05;;;;;;;13.10;4.40;;;;;7.40;94712.00;;;;7393194;19;20152;-81
2022/10/09 02:11:34;;;;;;;16.80;5.37;;;;;7.50;94707.00;;;;7392365;19;20487;-79
2022/10/09 02:14:08;;;;;;;11.37;5.30;;;;;7.40;94704.00;;;;7393438;19;20154;-80
2022/10/09 02:16:40;;;;;;;12.03;4.90;;;;;7.40;94698.00;;;;7395680;19;20132;-80
2022/10/09 02:19:17;;;;;;;13.57;4.70;;;;;7.50;94694.00;;;;7391058;19;20140;-80
2022/10/09 02:22:15;;;;;;;13.10;4.90;;;;;7.40;94697.00;;;;7391380;19;20176;-80
2022/10/09 02:24:54;;;;;;;15.77;4.77;;;;;7.30;94695.00;;;;7393651;19;20147;-79
2022/10/09 02:27:29;;;;;;;14.90;4.90;;;;;7.20;94693.00;;;;7392992;19;20161;-79
2022/10/09 02:29:58;;;;;;;12.23;4.80;;;;;7.20;94683.00;;;;7393555;19;20160;-79
2022/10/09 02:32:27;;;;;;;15.73;5.67;;;;;7.30;94676.00;;;;7395852;19;20133;-79
2022/10/09 02:35:02;;;;;;;13.10;4.97;;;;;7.20;94689.00;;;;7394820;19;20531;-82
2022/10/09 02:37:32;;;;;;;10.23;5.43;;;;;7.20;94677.00;;;;7399218;19;20157;-81
2022/10/09 02:40:01;;;;;;;13.33;4.83;;;;;7.20;94682.00;;;;7400430;19;20219;-80
2022/10/09 02:42:37;;;;;;;11.67;4.93;;;;;7.00;94683.00;;;;7399745;19;20152;-80
2022/10/09 02:45:05;;;;;;;11.93;5.40;;;;;7.00;94683.00;;;;7399779;19;20463;-81
2022/10/09 02:47:40;;;;;;;10.63;5.30;;;;;7.00;94688.00;;;;7398004;19;20133;-81
2022/10/09 02:50:14;;;;;;;14.50;5.10;;;;;7.00;94682.00;;;;7399067;19;20148;-82
2022/10/09 02:52:42;;;;;;;14.00;5.33;;;;;7.00;94692.00;;;;7395588;19;20248;-80
2022/10/09 02:55:09;;;;;;;14.43;5.43;;;;;7.00;94688.00;;;;7400276;19;20159;-80
2022/10/09 02:57:43;;;;;;;13.80;5.40;;;;;6.90;94683.00;;;;7394179;19;20611;-79
2022/10/09 03:00:11;;;;;;;16.47;5.70;;;;;6.90;94677.00;;;;7398486;19;20163;-79
2022/10/09 03:02:39;;;;;;;17.07;5.53;;;;;6.90;94677.00;;;;7399140;19;20457;-78
2022/10/09 03:05:17;;;;;;;14.73;5.30;;;;;7.00;94680.00;;;;7399172;19;20152;-80
2022/10/09 03:07:50;;;;;;;14.43;5.70;;;;;7.00;94680.00;;;;7398898;19;20512;-80
2022/10/09 03:10:24;;;;;;;13.07;5.30;;;;;7.00;94668.00;;;;7399949;19;20135;-81
2022/10/09 03:12:51;;;;;;;16.60;5.07;;;;;7.00;94677.00;;;;7398078;19;20264;-80
2022/10/09 03:15:18;;;;;;;16.20;5.60;;;;;7.00;94672.00;;;;7395556;19;20145;-81
2022/10/09 03:17:54;;;;;;;15.00;5.00;;;;;6.90;94673.00;;;;7398023;19;20591;-80
2022/10/09 03:20:29;;;;;;;16.80;6.10;;;;;6.90;94672.00;;;;7397097;19;20211;-80
2022/10/09 03:23:10;;;;;;;13.07;5.77;;;;;6.90;94675.00;;;;7396645;19;20477;-80
2022/10/09 03:25:37;;;;;;;18.60;5.57;;;;;6.80;94673.00;;;;7398499;19;20637;-80
2022/10/09 03:28:12;;;;;;;14.13;5.73;;;;;6.80;94671.00;;;;7397398;19;20200;-80
2022/10/09 03:30:47;;;;;;;15.97;5.47;;;;;6.80;94665.00;;;;7397421;19;20144;-81
2022/10/09 03:33:21;;;;;;;9.37;5.13;;;;;6.80;94665.00;;;;7397050;19;20140;-80
2022/10/09 03:35:49;;;;;;;13.87;5.63;;;;;6.70;94670.00;;;;7395652;19;20128;-80
2022/10/09 03:38:19;;;;;;;22.53;5.87;;;;;6.80;94668.00;;;;7400518;19;20125;-81
2022/10/09 03:40:52;;;;;;;10.20;5.13;;;;;6.80;94661.00;;;;7395312;19;20557;-80
2022/10/09 03:43:23;;;;;;;14.00;6.00;;;;;6.80;94665.00;;;;7395578;19;20245;-80
2022/10/09 03:45:51;;;;;;;15.67;5.37;;;;;6.80;94668.00;;;;7396629;19;20155;-81
2022/10/09 03:48:27;;;;;;;20.07;6.17;;;;;6.80;94672.00;;;;7397704;19;20148;-80
2022/10/09 03:50:54;;;;;;;14.03;5.60;;;;;6.70;94669.00;;;;7393843;19;20179;-81
2022/10/09 03:53:22;;;;;;;14.37;5.67;;;;;6.80;94667.00;;;;7396552;19;20144;-81
2022/10/09 03:55:58;;;;;;;14.10;5.27;;;;;6.70;94678.00;;;;7395182;19;20140;-82
2022/10/09 03:58:25;;;;;;;11.00;5.37;;;;;6.70;94674.00;;;;7397377;19;20722;-81
2022/10/09 04:00:53;;;;;;;17.33;6.27;;;;;6.80;94669.00;;;;7395681;19;20156;-80
2022/10/09 04:03:27;;;;;;;16.53;6.23;;;;;6.70;94665.00;;;;7395062;19;20630;-80
2022/10/09 04:05:55;;;;;;;13.43;5.60;;;;;6.60;94668.00;;;;7394023;19;20514;-80
2022/10/09 04:08:22;;;;;;;13.83;5.20;;;;;6.60;94668.00;;;;7396815;19;20160;-80
2022/10/09 04:10:57;;;;;;;15.70;6.67;;;;;6.60;94676.00;;;;7395393;19;20129;-80
2022/10/09 04:13:25;;;;;;;16.47;6.43;;;;;6.60;94674.00;;;;7395032;19;20180;-81
2022/10/09 04:15:54;;;;;;;13.10;5.93;;;;;6.60;94672.00;;;;7395278;19;20216;-80
2022/10/09 04:18:29;;;;;;;8.63;4.90;;;;;6.50;94671.00;;;;7396595;19;20128;-81
2022/10/09 04:21:03;;;;;;;15.93;5.67;;;;;6.60;94671.00;;;;7393877;19;20163;-80
2022/10/09 04:23:37;;;;;;;14.60;6.07;;;;;6.50;94659.00;;;;7395054;19;20615;-80
2022/10/09 04:26:05;;;;;;;14.40;5.53;;;;;6.60;94659.00;;;;7392184;19;20149;-81
2022/10/09 04:28:33;;;;;;;13.10;6.10;;;;;6.50;94657.00;;;;7395722;19;20167;-80
2022/10/09 04:31:09;;;;;;;13.27;5.63;;;;;6.60;94658.00;;;;7394798;19;20623;-79
2022/10/09 04:33:36;;;;;;;13.07;5.97;;;;;6.50;94655.00;;;;7393785;19;20188;-80
2022/10/09 04:36:04;;;;;;;19.60;6.07;;;;;6.40;94654.00;;;;7392345;19;20750;-81
2022/10/09 04:38:40;;;;;;;9.97;5.63;;;;;6.40;94650.00;;;;7394680;19;20158;-80
2022/10/09 04:41:09;;;;;;;18.53;5.97;;;;;6.40;94658.00;;;;7393820;19;20144;-81
2022/10/09 04:43:39;;;;;;;10.90;5.33;;;;;6.30;94652.00;;;;7393493;19;20526;-80
2022/10/09 04:46:14;;;;;;;9.43;5.10;;;;;6.40;94655.00;;;;7393022;19;20607;-80
2022/10/09 04:48:43;;;;;;;13.20;5.90;;;;;6.40;94655.00;;;;7394766;19;20184;-79
2022/10/09 04:51:12;;;;;;;14.33;6.23;;;;;6.30;94653.00;;;;7391696;19;20513;-81
2022/10/09 04:53:46;;;;;;;15.07;5.77;;;;;6.30;94652.00;;;;7392374;19;20136;-82
2022/10/09 04:56:17;;;;;;;14.17;6.23;;;;;6.40;94644.00;;;;7394845;19;20153;-80
2022/10/09 04:58:46;;;;;;;16.00;6.27;;;;;6.30;94648.00;;;;7392321;19;20148;-81
2022/10/09 05:01:22;;;;;;;15.97;6.00;;;;;6.20;94653.00;;;;7390532;19;20132;-82
2022/10/09 05:03:51;;;;;;;15.07;6.53;;;;;6.40;94640.00;;;;7395186;19;20147;-80
2022/10/09 05:06:20;;;;;;;12.33;6.83;;;;;6.30;94649.00;;;;7393431;19;20163;-80
2022/10/09 05:08:55;;;;;;;12.27;6.43;;;;;6.20;94651.00;;;;7391740;19;20132;-80
2022/10/09 05:11:24;;;;;;;19.77;6.67;;;;;6.10;94642.00;;;;7393870;19;20533;-81
2022/10/09 05:13:54;;;;;;;14.03;6.20;;;;;6.10;94640.00;;;;7394657;19;20160;-81
2022/10/09 05:16:30;;;;;;;20.57;6.70;;;;;6.10;94651.00;;;;7392465;19;20207;-80
2022/10/09 05:19:01;;;;;;;17.20;5.90;;;;;6.10;94644.00;;;;7393272;19;20464;-81
2022/10/09 05:21:42;;;;;;;12.63;5.97;;;;;6.10;94649.00;;;;7392402;19;20200;-81
2022/10/09 05:24:10;;;;;;;13.83;6.10;;;;;6.10;94639.00;;;;7394248;19;20157;-80
2022/10/09 05:26:43;;;;;;;16.70;6.70;;;;;6.00;94643.00;;;;7391055;19;20476;-83
2022/10/09 05:29:13;;;;;;;15.97;6.03;;;;;6.00;94635.00;;;;7393438;19;20143;-80
2022/10/09 05:31:42;;;;;;;13.20;5.87;;;;;6.00;94640.00;;;;7392898;19;20148;-83
2022/10/09 05:34:16;;;;;;;13.87;6.90;;;;;6.00;94636.00;;;;7393898;19;20129;-81
2022/10/09 05:36:43;;;;;;;10.00;5.73;;;;;6.10;94627.00;;;;7389591;19;20160;-83
2022/10/09 05:39:11;;;;;;;14.33;6.33;;;;;6.10;94637.00;;;;7393591;19;20149;-81
2022/10/09 05:41:45;;;;;;;14.90;5.80;;;;;6.10;94630.00;;;;7395349;19;20137;-81
2022/10/09 05:44:19;;;;;;;14.80;5.70;;;;;6.00;94633.00;;;;7394436;19;20155;-82
2022/10/09 05:46:49;;;;;;;13.03;5.43;;;;;6.00;94639.00;;;;7390618;19;20144;-81
2022/10/09 05:49:23;;;;;;;9.27;5.47;;;;;5.90;94638.00;;;;7392469;19;20152;-82
2022/10/09 05:51:51;;;;;;;13.50;6.53;;;;;5.90;94640.00;;;;7394399;19;20176;-83
2022/10/09 05:54:18;;;;;;;13.27;5.73;;;;;6.00;94638.00;;;;7393580;19;20144;-83
2022/10/09 05:56:55;;;;;;;15.50;5.97;;;;;6.10;94637.00;;;;7393398;19;20180;-81
2022/10/09 05:59:22;;;;;;;9.13;5.77;;;;;6.10;94636.00;;;;7392286;19;20163;-80
2022/10/09 06:01:53;;;;;;;16.07;5.97;;;;;6.10;94624.00;;;;7388816;19;20136;-78
2022/10/09 06:04:31;;;;;;;19.50;6.93;;;;;6.00;94625.00;;;;7393827;19;20669;-78
2022/10/09 06:07:07;;;;;;;9.10;6.00;;;;;6.10;94629.00;;;;7396144;19;20616;-78
2022/10/09 06:09:55;;;;;;;11.37;6.30;;;;;6.10;94633.00;;;;7398184;19;20136;-78
2022/10/09 06:12:37;;;;;;;11.33;5.87;;;;;6.30;94627.00;;;;7392485;19;20632;-78
2022/10/09 06:15:22;;;;;;;14.27;6.30;;;;;6.50;94622.00;;;;7398337;19;20135;-78
2022/10/09 06:17:56;;;;;;;11.70;6.30;;;;;6.70;94628.00;;;;7395625;19;20137;-78
2022/10/09 06:21:05;;;;;;;13.40;5.30;;;;;6.90;94631.00;;;;7396658;19;20160;-78
2022/10/09 06:23:39;;;;;;;12.37;5.90;;;;;7.20;94633.00;;;;7394276;19;20160;-79
2022/10/09 06:26:13;;;;;;;11.03;6.27;;;;;7.40;94632.00;;;;7396355;19;20615;-79
2022/10/09 06:28:42;;;;;;;18.23;7.53;;;;;7.50;94641.00;;;;7393337;19;20623;-79
2022/10/09 06:31:17;;;;;;;20.20;8.30;;;;;7.70;94641.00;;;;7397946;19;20592;-83
2022/10/09 06:33:52;;;;;;;16.87;7.30;;;;;7.80;94636.00;;;;7394931;19;20623;-79
2022/10/09 06:36:25;;;;;;;12.87;6.00;;;;;7.80;94637.00;;;;7394837;19;20208;-80
2022/10/09 06:39:02;;;;;;;11.80;6.57;;;;;8.10;94634.00;;;;7391597;19;20599;-81
2022/10/09 06:41:30;;;;;;;13.80;6.20;;;;;8.20;94640.00;;;;7395358;19;20155;-80
2022/10/09 06:44:00;;;;;;;16.83;5.83;;;;;8.30;94638.00;;;;7392684;19;20125;-81
2022/10/09 06:46:40;;;;;;;12.67;5.60;;;;;8.40;94641.00;;;;7394859;19;20635;-81
2022/10/09 06:49:09;;;;;;;15.63;6.07;;;;;8.70;94636.00;;;;7393232;19;20152;-82
2022/10/09 06:51:43;;;;;;;12.73;5.63;;;;;8.90;94643.00;;;;7391100;19;20557;-81
2022/10/09 06:54:15;;;;;;;16.37;5.80;;;;;8.90;94646.00;;;;7393138;19;20145;-79
2022/10/09 06:56:47;;;;;;;13.40;5.63;;;;;9.00;94644.00;;;;7393344;19;20482;-85
2022/10/09 06:59:21;;;;;;;13.63;5.57;;;;;9.20;94635.00;;;;7392203;19;20169;-84
2022/10/09 07:01:55;;;;;;;6.60;4.67;;;;;9.10;94643.00;;;;7392846;19;20177;-87
2022/10/09 07:04:23;;;;;;;10.23;4.80;;;;;9.30;94646.00;;;;7392621;19;20511;-83
2022/10/09 07:07:02;;;;;;;11.03;4.27;;;;;9.30;94645.00;;;;7392152;19;20212;-86
2022/10/09 07:09:36;;;;;;;8.37;4.47;;;;;9.30;94644.00;;;;7391088;19;20152;-84
2022/10/09 07:12:06;;;;;;;8.83;4.63;;;;;9.50;94645.00;;;;7393199;19;20149;-82
2022/10/09 07:14:40;;;;;;;8.57;4.80;;;;;9.60;94646.00;;;;7392697;19;20148;-82
2022/10/09 07:17:10;;;;;;;11.10;5.65;;;;;9.70;94649.00;;;;7391032;19;20137;-84
2022/10/09 07:19:44;;;;;;;10.83;4.50;;;;;9.70;94657.00;;;;7394370;19;20134;-83
2022/10/09 07:22:31;;;;;;;5.67;3.70;;;;;9.90;94651.00;;;;7395448;19;20655;-81
2022/10/09 07:24:59;;;;;;;8.97;4.40;;;;;10.00;94649.00;;;;7398109;19;20168;-85
2022/10/09 07:27:34;;;;;;;5.60;3.72;;;;;10.00;94643.00;;;;7400457;19;20484;-84
2022/10/09 07:30:02;;;;;;;7.45;3.78;;;;;10.30;94652.00;;;;7401689;19;20137;-85
2022/10/09 07:32:32;;;;;;;10.15;4.22;;;;;10.50;94642.00;;;;7401115;19;20599;-84
2022/10/09 07:35:07;;;;;;;7.70;4.05;;;;;10.70;94645.00;;;;7399783;19;20140;-83
2022/10/09 07:37:35;;;;;;;9.82;4.05;;;;;10.70;94642.00;;;;7401693;19;20145;-84
2022/10/09 07:40:03;;;;;;;13.50;3.85;;;;;10.80;94645.00;;;;7400828;19;20714;-83
2022/10/09 07:42:37;;;;;;;6.80;3.60;;;;;10.80;94641.00;;;;7399596;19;20753;-83
2022/10/09 07:45:05;;;;;;;5.20;3.20;;;;;10.90;94632.00;;;;7399863;19;20596;-83
2022/10/09 07:47:32;;;;;;;9.15;3.53;;;;;11.10;94623.00;;;;7397386;19;20145;-82
2022/10/09 07:50:06;;;;;;;7.00;3.65;;;;;11.20;94628.00;;;;7400239;19;20591;-82
2022/10/09 07:52:39;;;;;;;7.70;3.30;;;;;11.30;94639.00;;;;7395720;19;20157;-83
2022/10/09 07:55:07;;;;;;;7.20;3.67;;;;;11.30;94634.00;;;;7400368;19;20741;-82
2022/10/09 07:57:41;;;;;;;6.07;3.70;;;;;11.50;94645.00;;;;7396915;19;20211;-82
2022/10/09 08:00:10;;;;;;;6.75;3.53;;;;;11.70;94633.00;;;;7397560;19;20180;-81
2022/10/09 08:02:37;;;;;;;6.18;3.38;;;;;11.70;94634.00;;;;7398691;19;20164;-82
2022/10/09 08:05:11;;;;;;;5.47;3.35;;;;;12.00;94630.00;;;;7398673;19;20200;-83
2022/10/09 08:07:39;;;;;;;8.55;3.90;;;;;12.00;94642.00;;;;7398323;19;20149;-81
2022/10/09 08:10:07;;;;;;;8.20;3.22;;;;;11.80;94633.00;;;;7397417;19;20133;-82
2022/10/09 08:12:44;;;;;;;6.18;3.03;;;;;12.10;94632.00;;;;7397900;19;20648;-84
2022/10/09 08:15:12;;;;;;;6.82;2.97;;;;;12.00;94632.00;;;;7398746;19;20204;-82
2022/10/09 08:17:40;;;;;;;6.53;3.33;;;;;12.00;94625.00;;;;7397525;19;20143;-81
2022/10/09 08:20:28;;;;;;;5.13;3.20;;;;;12.30;94627.00;;;;7399423;19;20590;-81
2022/10/09 08:23:04;;;;;;;6.38;3.05;;;;;12.50;94629.00;;;;7396891;19;20125;-81
2022/10/09 08:25:39;;;;;;;4.80;3.15;;;;;12.60;94625.00;;;;7398475;19;20135;-81
2022/10/09 08:28:07;;;;;;;4.90;3.10;;;;;12.40;94624.00;;;;7395619;19;20519;-81
2022/10/09 08:30:35;;;;;;;7.65;3.28;;;;;12.20;94629.00;;;;7394159;19;20155;-81
2022/10/09 08:33:11;;;;;;;7.10;3.60;;;;;12.20;94626.00;;;;7395223;19;20133;-80
2022/10/09 08:35:39;;;;;;;13.02;3.20;;;;;12.40;94620.00;;;;7397440;19;20142;-80
2022/10/09 08:38:06;;;;;;;5.60;3.03;;;;;12.40;94621.00;;;;7394240;19;20137;-80
2022/10/09 08:41:23;;;;;;;5.53;3.00;;;;;12.30;94621.00;;;;7396965;19;20164;-80
2022/10/09 08:44:15;;;;;;;5.20;2.97;;;;;12.50;94628.00;;;;7397604;19;20149;-81
2022/10/09 08:47:12;;;;;;;6.07;3.15;;;;;12.60;94618.00;;;;7396730;19;20153;-82
2022/10/09 08:50:08;;;;;;;6.57;3.15;;;;;12.70;94620.00;;;;7398562;19;20137;-81
2022/10/09 08:53:01;;;;;;;6.35;2.88;;;;;12.60;94624.00;;;;7394938;19;20619;-80
2022/10/09 08:55:41;;;;;;;4.03;3.00;;;;;12.90;94616.00;;;;7396439;19;20144;-82
2022/10/09 08:58:18;;;;;;;6.50;2.78;;;;;12.80;94605.00;;;;7393763;19;20473;-82
2022/10/09 09:00:52;;;;;;;8.10;3.40;;;;;13.10;94608.00;;;;7395973;19;20192;-82
2022/10/09 09:04:04;;;;;;;8.65;3.05;;;;;13.60;94604.00;;;;7393380;19;20137;-82
2022/10/09 09:06:59;;;;;;;5.25;2.70;;;;;13.60;94606.00;;;;7396547;19;20140;-82
2022/10/09 09:09:59;;;;;;;5.60;2.80;;;;;13.60;94601.00;;;;7396095;19;20137;-80
2022/10/09 09:12:51;;;;;;;12.05;3.30;;;;;13.80;94611.00;;;;7395819;19;20159;-83
2022/10/09 09:15:43;;;;;;;6.38;2.67;;;;;14.10;94607.00;;;;7397169;19;20451;-83
2022/10/09 09:18:17;;;;;;;6.00;2.88;;;;;14.20;94616.00;;;;7394543;19;20149;-83
2022/10/09 09:21:46;;;;;;;10.23;3.20;;;;;14.30;94608.00;;;;7391421;19;20658;-82
2022/10/09 09:24:20;;;;;;;5.68;2.30;;;;;14.50;94613.00;;;;7394735;19;20145;-85
2022/10/09 09:26:59;;;;;;;5.25;2.58;;;;;14.00;94604.00;;;;7393026;19;20144;-80
2022/10/09 09:29:37;;;;;;;4.85;2.47;;;;;14.10;94600.00;;;;7393065;19;20178;-80
2022/10/09 09:32:21;;;;;;;5.70;2.55;;;;;13.70;94606.00;;;;7394917;19;20802;-78
2022/10/09 09:34:51;;;;;;;8.00;2.58;;;;;14.00;94603.00;;;;7394249;19;20611;-81
2022/10/09 09:37:26;;;;;;;6.05;2.92;;;;;14.40;94594.00;;;;7394326;19;20141;-81
2022/10/09 09:39:53;;;;;;;6.63;2.80;;;;;14.50;94602.00;;;;7394743;19;20615;-81
2022/10/09 09:42:42;;;;;;;5.65;2.38;;;;;14.80;94587.00;;;;7392050;19;20144;-81
2022/10/09 09:45:25;;;;;;;5.90;2.50;;;;;15.20;94582.00;;;;7394621;19;20723;-83
2022/10/09 09:48:15;;;;;;;5.28;2.50;;;;;15.20;94588.00;;;;7392904;19;20599;-83
2022/10/09 09:50:52;;;;;;;5.63;2.20;;;;;15.20;94580.00;;;;7391665;19;20155;-80
2022/10/09 09:53:44;;;;;;;6.90;2.50;;;;;15.10;94585.00;;;;7394677;19;20141;-85
2022/10/09 09:56:18;;;;;;;3.45;2.05;;;;;15.20;94582.00;;;;7393095;19;20623;-82
2022/10/09 09:58:49;;;;;;;5.38;2.40;;;;;15.40;94576.00;;;;7390848;19;20139;-79
2022/10/09 10:01:27;;;;;;;5.07;2.38;;;;;15.50;94561.00;;;;7393993;19;20634;-83
2022/10/09 10:04:27;;;;;;;5.38;2.35;;;;;15.90;94565.00;;;;7393494;19;20145;-81
2022/10/09 10:07:01;;;;;;;5.32;2.15;;;;;15.90;94565.00;;;;7394905;19;20133;-80
2022/10/09 10:09:35;;;;;;;4.32;2.42;;;;;16.00;94559.00;;;;7393928;19;20203;-82
2022/10/09 10:12:11;;;;;;;3.22;2.10;;;;;16.20;94553.00;;;;7392014;19;20627;-83
2022/10/09 10:14:58;;;;;;;4.55;2.28;;;;;16.40;94549.00;;;;7392512;19;20148;-84
2022/10/09 10:17:36;;;;;;;4.38;2.28;;;;;16.30;94546.00;;;;7393340;19;20625;-81
2022/10/09 10:20:16;;;;;;;4.88;2.40;;;;;16.20;94550.00;;;;7394712;19;20137;-82
2022/10/09 10:22:55;;;;;;;3.88;2.20;;;;;16.30;94542.00;;;;7389757;19;20666;-84
2022/10/09 10:25:34;;;;;;;4.13;2.65;;;;;16.40;94542.00;;;;7392075;19;20156;-81
2022/10/09 10:28:19;;;;;;;7.15;2.60;;;;;16.90;94542.00;;;;7393306;19;20179;-84
2022/10/09 10:31:01;;;;;;;5.28;2.42;;;;;16.70;94539.00;;;;7392994;19;20160;-83
2022/10/09 10:33:37;;;;;;;5.97;2.75;;;;;16.30;94540.00;;;;7393425;19;20136;-82
2022/10/09 10:36:11;;;;;;;4.25;2.30;;;;;16.50;94546.00;;;;7393061;19;20156;-82
2022/10/09 10:38:51;;;;;;;6.65;2.88;;;;;16.70;94541.00;;;;7388846;19;20649;-82
2022/10/09 10:41:31;;;;;;;6.80;2.45;;;;;17.00;94530.00;;;;7391954;19;20153;-82
2022/10/09 10:44:17;;;;;;;5.63;2.13;;;;;16.90;94527.00;;;;7393607;19;20175;-84
2022/10/09 10:47:05;;;;;;;4.47;2.80;;;;;16.80;94530.00;;;;7394053;19;20166;-83
2022/10/09 10:49:33;;;;;;;2.60;1.98;;;;;16.90;94524.00;;;;7392518;19;20181;-82
2022/10/09 10:52:18;;;;;;;3.17;2.15;;;;;16.60;94523.00;;;;7388155;19;20179;-81
2022/10/09 10:55:04;;;;;;;4.30;1.95;;;;;16.80;94517.00;;;;7393776;19;20144;-80
2022/10/09 10:58:00;;;;;;;4.72;2.08;;;;;16.90;94519.00;;;;7396890;19;20177;-81
2022/10/09 11:00:29;;;;;;;4.40;2.17;;;;;16.70;94520.00;;;;7396241;19;20137;-79
2022/10/09 11:03:16;;;;;;;7.22;2.42;;;;;16.40;94523.00;;;;7396291;19;20163;-80
2022/10/09 11:06:03;;;;;;;4.78;2.30;;;;;16.70;94517.00;;;;7397097;19;20140;-81
2022/10/09 11:08:49;;;;;;;5.13;2.33;;;;;16.90;94521.00;;;;7392620;19;20161;-80
2022/10/09 11:11:19;;;;;;;4.50;2.30;;;;;17.10;94522.00;;;;7396832;19;20156;-80
2022/10/09 11:14:16;;;;;;;6.18;2.10;;;;;16.60;94517.00;;;;7392159;19;20219;-82
2022/10/09 11:17:11;;;;;;;3.25;2.22;;;;;16.50;94507.00;;;;7392119;19;20157;-81
2022/10/09 11:20:35;;;;;;;5.53;2.45;;;;;16.90;94514.00;;;;7391396;19;20144;-80
2022/10/09 11:23:21;;;;;;;3.85;2.38;;;;;17.60;94504.00;;;;7392370;19;20163;-81
2022/10/09 11:26:07;;;;;;;4.13;2.10;;;;;18.00;94505.00;;;;7394464;19;20487;-81
2022/10/09 11:28:44;;;;;;;5.43;2.22;;;;;17.80;94503.00;;;;7392318;19;20143;-79
2022/10/09 11:31:35;;;;;;;3.47;2.40;;;;;18.00;94506.00;;;;7394809;19;20493;-80
2022/10/09 11:34:12;;;;;;;3.85;2.05;;;;;17.70;94503.00;;;;7392277;19;20125;-81
2022/10/09 11:36:46;;;;;;;5.95;2.25;;;;;17.90;94487.00;;;;7397581;19;20142;-84
2022/10/09 11:39:16;;;;;;;2.30;1.98;;;;;18.20;94487.00;;;;7399031;19;20149;-80
2022/10/09 11:41:54;;;;;;;3.47;1.70;;;;;18.10;94491.00;;;;7399281;19;20137;-80
2022/10/09 11:44:45;;;;;;;6.10;2.50;;;;;17.80;94476.00;;;;7395934;19;20607;-80
2022/10/09 11:47:37;;;;;;;4.90;2.03;;;;;17.80;94476.00;;;;7395893;19;20163;-79
2022/10/09 11:50:26;;;;;;;5.68;2.00;;;;;18.40;94478.00;;;;7397020;19;20152;-78
2022/10/09 11:52:58;;;;;;;3.50;1.70;;;;;17.90;94477.00;;;;7397250;19;20133;-81
2022/10/09 11:55:33;;;;;;;3.70;2.00;;;;;18.20;94472.00;;;;7397143;19;20588;-79
2022/10/09 11:58:21;;;;;;;10.13;1.70;;;;;18.90;94469.00;;;;7395837;19;20589;-78
2022/10/09 12:01:12;;;;;;;4.97;2.20;;;;;19.40;94462.00;;;;7394134;19;20217;-81
2022/10/09 12:03:41;;;;;;;4.03;2.05;;;;;18.80;94460.00;;;;7397289;19;20233;-81
2022/10/09 12:06:16;;;;;;;5.43;2.20;;;;;18.90;94452.00;;;;7394867;19;20722;-80
2022/10/09 12:08:58;;;;;;;5.63;1.75;;;;;19.60;94450.00;;;;7395788;19;20149;-80
2022/10/09 12:11:36;;;;;;;3.13;1.88;;;;;19.90;94446.00;;;;7393739;19;20133;-81
2022/10/09 12:14:10;;;;;;;4.10;1.88;;;;;20.50;94432.00;;;;7392657;19;20148;-80
2022/10/09 12:16:46;;;;;;;3.97;1.75;;;;;21.00;94423.00;;;;7393128;19;20155;-78
2022/10/09 12:19:20;;;;;;;5.70;1.80;;;;;21.40;94438.00;;;;7394061;19;20245;-80
2022/10/09 12:22:06;;;;;;;4.38;1.85;;;;;21.60;94425.00;;;;7392871;19;20631;-82
2022/10/09 12:24:46;;;;;;;2.60;1.80;;;;;21.50;94423.00;;;;7395887;19;20140;-80
2022/10/09 12:27:39;;;;;;;5.28;1.83;;;;;21.60;94415.00;;;;7394047;19;20164;-79
2022/10/09 12:30:13;;;;;;;5.35;1.80;;;;;21.90;94411.00;;;;7395632;19;20139;-80
2022/10/09 12:33:10;;;;;;;2.83;1.63;;;;;21.20;94416.00;;;;7391044;19;20125;-82
2022/10/09 12:35:40;;;;;;;2.78;1.60;;;;;20.30;94406.00;;;;7394093;19;20680;-81
2022/10/09 12:38:27;;;;;;;3.03;2.00;;;;;20.00;94405.00;;;;7394247;19;20149;-82
2022/10/09 12:41:00;;;;;;;2.00;1.73;;;;;20.30;94406.00;;;;7381685;19;20214;-80
2022/10/09 12:43:35;;;;;;;4.30;1.65;;;;;20.30;94405.00;;;;7387441;19;20132;-81
2022/10/09 12:46:03;;;;;;;5.60;1.80;;;;;20.20;94404.00;;;;7384491;19;20676;-78
2022/10/09 12:48:41;;;;;;;6.63;1.88;;;;;19.50;94408.00;;;;7387175;19;20155;-76
2022/10/09 12:51:21;;;;;;;4.78;2.10;;;;;19.10;94412.00;;;;7388096;19;20166;-76
2022/10/09 12:53:50;;;;;;;6.32;2.00;;;;;19.20;94408.00;;;;7384750;19;20224;-78
2022/10/09 12:56:35;;;;;;;3.75;1.70;;;;;19.20;94403.00;;;;7384350;19;20223;-79
2022/10/09 12:59:08;;;;;;;5.35;1.70;;;;;19.00;94399.00;;;;7384765;19;20177;-79
2022/10/09 13:01:44;;;;;;;2.38;1.50;;;;;18.90;94401.00;;;;7389512;19;20605;-78
2022/10/09 13:04:35;;;;;;;10.88;1.65;;;;;18.70;94398.00;;;;7392424;19;20148;-79
2022/10/09 13:07:24;;;;;;;6.60;1.70;;;;;19.20;94395.00;;;;7390444;19;20599;-80